Current Conditions
Partly Cloudy
Conditions



Pressure
1014.92 (hPa) - 29.97 (inHG)
Visibility

10.0 (km) - 6.2 (miles)
   Temperature
22  °C
72°F
14  °C
Dewpoint
61  %
 Humidity
   Wind Speed
21  km/h
11  kts
13  mph
5.8  m/s
   Wind Direction
 310°
North West
   Airport Data
LHPR
Location Győr-Pér International Airport 10 km (6.22 mi)
Metar :LHPR 161145Z AUTO 31011KT 280V340 9999 FEW032 SCT100 BKN232 22/14 Q1015 NOSIG
Thu 16th July 13:45 pm
   Raw Metar Info
Raw METAR is the most common format in the world for the transmission of observational weather data. It is highly standardized through the International Civil Aviation Organization (ICAO), which allows it to be understood throughout most of the world.
   API Info
Data Provided by
https://www.checkwx.com/weather/LHPR
   © Info
CSS/SVG/PHP scripts were developed by weather34.com for use in the weather34 template © 2015-2020

Guide Info provided by Metar-Wikipedia